Weather at JAGS McCartney International Airport

Public forecast

Using degrees Celsius for public forecast. Weather courtesy of forecast.io.

Current aviation weather report (METAR) for JAGS McCartney International Airport

Report is more than 6 hours old.

Retrieved 2020/11/30 22:00 UTC (6 hours ago):

MBGT 302200Z 09005KT 9999 SCT015 SCT050 25/19 Q1014

Aviation forecast (TAF) for JAGS McCartney International Airport

Forecast is more than 12 hours old.

Retrieved 2020/03/22 18:20 UTC (8 months ago):

TAF COR MBGT 221605Z 2218/2318 07014KT 9999 VCSH SCT018 SCT040 PROB30 TEMPO 2300/2304 05016KT 7000 SHRA SCT016 BKN040 BECMG 2312/2314 09018KT